Time;durP1;ratioP1;P1;durP2;ratioP2;P2;SDS_P1;SDS_P2;PMS_P1;PMS_P2;Temp;Humidity;BMP_temperature;BMP_pressure;BME280_temperature;BME280_humidity;BME280_pressure;Samples;Min_cycle;Max_cycle;Signal;HPM_P1;HPM_P2
2021/12/11 00:02:11;;;;;;;28.70;18.30;;;24.00;49.00;;;;;;214425;1317;22580;-56
2021/12/11 00:07:17;;;;;;;29.50;18.50;;;24.00;48.80;;;;;;214061;1318;25590;-56
2021/12/11 00:12:29;;;;;;;27.00;17.20;;;23.90;48.70;;;;;;214440;1314;24298;-57
2021/12/11 00:17:34;;;;;;;27.70;18.60;;;23.90;48.60;;;;;;214457;1316;24542;-55
2021/12/11 00:22:41;;;;;;;29.20;19.00;;;24.00;48.80;;;;;;214438;1316;25335;-51
2021/12/11 00:27:51;;;;;;;26.50;17.50;;;23.90;48.40;;;;;;214476;1314;25474;-56
2021/12/11 00:33:02;;;;;;;28.30;18.60;;;23.90;48.90;;;;;;214385;1315;22617;-52
2021/12/11 00:38:13;;;;;;;26.20;17.90;;;23.90;48.10;;;;;;214475;1315;24276;-54
2021/12/11 00:43:21;;;;;;;27.20;17.40;;;23.90;48.20;;;;;;214589;1315;22609;-55
2021/12/11 00:48:27;;;;;;;30.40;17.60;;;23.90;48.20;;;;;;214392;1315;24285;-50
2021/12/11 00:53:56;;;;;;;27.00;17.70;;;23.90;48.30;;;;;;214375;1315;24559;-53
2021/12/11 00:59:03;;;;;;;25.70;17.00;;;23.90;48.60;;;;;;214167;1315;22596;-55
2021/12/11 01:04:15;;;;;;;24.70;17.10;;;23.90;48.10;;;;;;214284;1313;165816;-51
2021/12/11 01:09:30;;;;;;;26.50;17.90;;;23.90;48.00;;;;;;214374;1314;22666;-52
2021/12/11 01:14:43;;;;;;;27.30;17.80;;;23.90;48.00;;;;;;214477;1315;25326;-55
2021/12/11 01:19:51;;;;;;;24.20;16.90;;;23.90;48.00;;;;;;214468;1316;24650;-56
2021/12/11 01:24:56;;;;;;;27.50;17.70;;;23.90;48.00;;;;;;214601;1315;26652;-51
2021/12/11 01:30:00;;;;;;;26.90;17.80;;;24.00;47.70;;;;;;214411;1316;22567;-52
2021/12/11 01:35:11;;;;;;;27.00;17.80;;;24.10;47.40;;;;;;214429;1314;25012;-56
2021/12/11 01:40:20;;;;;;;25.90;17.30;;;24.10;47.20;;;;;;214381;1316;25791;-52
2021/12/11 01:45:23;;;;;;;26.40;17.90;;;24.10;47.20;;;;;;214396;1316;22670;-53
2021/12/11 01:50:33;;;;;;;23.90;16.60;;;24.00;47.20;;;;;;214501;1316;22531;-54
2021/12/11 01:55:56;;;;;;;26.90;16.80;;;24.10;47.10;;;;;;214585;1316;22582;-55
2021/12/11 02:01:06;;;;;;;24.70;16.60;;;24.10;47.30;;;;;;214287;1310;22567;-53
2021/12/11 02:06:10;;;;;;;22.50;15.60;;;24.10;47.10;;;;;;214336;1314;23931;-56
2021/12/11 02:11:18;;;;;;;22.90;16.20;;;24.00;47.20;;;;;;214448;1316;22572;-53
2021/12/11 02:16:25;;;;;;;22.10;15.70;;;24.00;47.00;;;;;;214480;1314;22644;-52
2021/12/11 02:21:32;;;;;;;24.90;16.60;;;24.00;46.90;;;;;;214454;1316;25363;-53
2021/12/11 02:26:39;;;;;;;23.80;15.90;;;24.00;46.60;;;;;;214410;1309;22587;-56
2021/12/11 02:31:48;;;;;;;23.10;15.90;;;24.00;46.90;;;;;;214331;1316;22571;-53
2021/12/11 02:37:10;;;;;;;23.10;16.30;;;24.00;46.90;;;;;;214419;1315;24333;-52
2021/12/11 02:42:31;;;;;;;21.60;15.40;;;24.00;47.00;;;;;;214453;1315;22789;-52
2021/12/11 02:47:42;;;;;;;23.40;15.70;;;24.00;47.00;;;;;;214529;1316;25505;-51
2021/12/11 02:52:59;;;;;;;22.90;15.60;;;24.00;47.30;;;;;;214369;1309;25275;-53
2021/12/11 02:58:09;;;;;;;21.30;14.70;;;24.00;46.90;;;;;;214305;1317;22606;-54
2021/12/11 03:03:16;;;;;;;18.90;13.40;;;24.10;46.90;;;;;;214395;1316;25283;-53
2021/12/11 03:08:21;;;;;;;20.50;14.60;;;24.20;46.50;;;;;;214332;1309;22734;-55
2021/12/11 03:13:27;;;;;;;21.60;15.00;;;24.30;46.30;;;;;;214465;1316;22571;-51
2021/12/11 03:18:38;;;;;;;23.20;14.90;;;24.20;46.30;;;;;;214630;1315;22598;-52
2021/12/11 03:23:49;;;;;;;19.60;14.00;;;24.10;46.40;;;;;;214571;1316;25374;-51
2021/12/11 03:28:59;;;;;;;19.60;14.00;;;24.10;46.70;;;;;;214558;1316;22663;-52
2021/12/11 03:34:06;;;;;;;21.10;14.20;;;24.10;46.60;;;;;;214374;1316;22559;-53
2021/12/11 03:39:14;;;;;;;21.60;14.00;;;24.10;46.10;;;;;;214363;1315;25761;-56
2021/12/11 03:44:18;;;;;;;20.20;13.90;;;24.10;46.40;;;;;;214394;1316;25428;-52
2021/12/11 03:49:22;;;;;;;20.00;13.50;;;24.00;46.10;;;;;;214593;1310;22567;-52
2021/12/11 03:54:35;;;;;;;21.30;14.30;;;23.80;46.40;;;;;;214403;1316;22590;-52
2021/12/11 03:59:39;;;;;;;20.30;14.00;;;23.70;46.90;;;;;;214627;1313;22620;-52
2021/12/11 04:04:48;;;;;;;19.70;13.70;;;23.60;47.00;;;;;;214500;1316;22869;-51
2021/12/11 04:09:52;;;;;;;19.90;14.30;;;23.50;47.70;;;;;;213928;1312;22581;-51
2021/12/11 04:14:56;;;;;;;19.50;13.70;;;23.30;47.50;;;;;;214075;1318;25929;-53
2021/12/11 04:20:04;;;;;;;19.10;12.90;;;23.20;47.60;;;;;;214398;1317;24289;-52
2021/12/11 04:25:11;;;;;;;20.80;13.50;;;23.10;47.80;;;;;;214299;1318;25805;-53
2021/12/11 04:30:17;;;;;;;19.50;13.70;;;23.00;48.10;;;;;;214391;1318;22611;-52
2021/12/11 04:35:22;;;;;;;20.20;13.80;;;22.90;48.30;;;;;;214378;1313;25604;-52
2021/12/11 04:40:31;;;;;;;18.50;13.40;;;22.90;48.70;;;;;;214118;1318;24903;-52
2021/12/11 04:45:49;;;;;;;18.00;13.40;;;22.80;48.90;;;;;;214413;1315;22577;-53
2021/12/11 04:51:00;;;;;;;20.00;12.30;;;22.70;49.10;;;;;;214438;1316;25348;-54
2021/12/11 05:01:48;;;;;;;16.00;11.60;;;22.60;49.40;;;;;;214406;1314;24447;-52
2021/12/11 05:07:07;;;;;;;17.40;12.40;;;22.90;48.50;;;;;;214394;1315;23060;-54
2021/12/11 05:17:27;;;;;;;17.80;11.40;;;23.50;47.50;;;;;;214424;1315;25411;-52
2021/12/11 05:22:31;;;;;;;17.50;11.90;;;23.70;47.50;;;;;;214352;1315;22567;-52
2021/12/11 05:27:36;;;;;;;15.50;10.80;;;23.70;46.80;;;;;;214442;1318;25564;-56
2021/12/11 05:32:40;;;;;;;17.50;12.00;;;23.70;47.00;;;;;;214481;1315;22686;-51
2021/12/11 05:37:44;;;;;;;17.60;12.70;;;23.70;47.00;;;;;;214411;1315;22637;-51
2021/12/11 05:42:50;;;;;;;18.80;12.30;;;23.70;46.50;;;;;;214520;1315;25110;-52
2021/12/11 05:47:55;;;;;;;17.10;12.00;;;23.70;46.70;;;;;;214539;1315;24245;-52
2021/12/11 05:52:59;;;;;;;17.90;12.10;;;23.70;46.60;;;;;;214367;1316;22564;-56
2021/12/11 05:58:11;;;;;;;18.20;12.00;;;23.80;46.40;;;;;;214512;1314;22590;-57
2021/12/11 06:03:15;;;;;;;17.90;12.00;;;23.70;46.50;;;;;;214132;1319;22633;-54
2021/12/11 06:08:19;;;;;;;17.00;11.60;;;23.80;46.20;;;;;;214380;1315;25462;-56
2021/12/11 06:13:25;;;;;;;16.40;11.20;;;23.90;45.90;;;;;;214332;1315;24286;-53
2021/12/11 06:18:29;;;;;;;15.90;11.30;;;23.80;46.00;;;;;;214527;1313;22639;-52
2021/12/11 06:23:33;;;;;;;16.90;11.60;;;23.90;46.20;;;;;;214490;1315;25688;-55
2021/12/11 06:28:37;;;;;;;16.40;11.10;;;23.90;45.90;;;;;;214461;1315;24325;-52
2021/12/11 06:33:42;;;;;;;16.20;11.00;;;23.90;45.80;;;;;;214530;1315;22643;-55
2021/12/11 06:38:51;;;;;;;16.30;11.20;;;23.90;45.80;;;;;;214487;1309;22652;-53
2021/12/11 06:43:55;;;;;;;15.50;10.50;;;23.90;46.00;;;;;;214405;1315;24852;-52
2021/12/11 06:48:59;;;;;;;16.70;10.50;;;24.00;45.50;;;;;;214709;1314;22657;-53
2021/12/11 06:54:07;;;;;;;16.30;11.20;;;24.10;45.10;;;;;;214411;1315;22568;-53
2021/12/11 06:59:12;;;;;;;16.40;10.80;;;24.20;45.00;;;;;;214595;1309;22625;-53
2021/12/11 07:04:15;;;;;;;15.20;10.60;;;24.30;44.90;;;;;;214333;1309;24328;-54
2021/12/11 07:09:21;;;;;;;14.30;10.30;;;24.30;44.80;;;;;;214072;1311;22554;-56
2021/12/11 07:14:29;;;;;;;14.90;11.30;;;24.30;44.70;;;;;;214470;1314;25495;-54
2021/12/11 07:19:32;;;;;;;15.80;10.60;;;24.20;44.80;;;;;;214366;1314;22718;-53
2021/12/11 07:24:45;;;;;;;15.20;10.80;;;24.30;44.70;;;;;;214306;1309;23034;-54
2021/12/11 07:29:49;;;;;;;14.80;10.90;;;24.30;44.60;;;;;;214252;1309;22645;-52
2021/12/11 07:34:56;;;;;;;19.20;11.00;;;24.30;44.80;;;;;;213890;1312;22563;-56
2021/12/11 07:40:00;;;;;;;16.40;11.10;;;24.30;44.80;;;;;;213901;1313;22566;-52
2021/12/11 07:45:08;;;;;;;15.40;10.70;;;24.30;44.60;;;;;;214098;1309;23294;-53
2021/12/11 07:50:13;;;;;;;16.10;11.10;;;24.30;44.60;;;;;;213790;1310;24294;-53
2021/12/11 07:55:17;;;;;;;14.20;10.60;;;24.30;45.00;;;;;;213989;1309;25483;-51
2021/12/11 08:00:24;;;;;;;15.60;10.80;;;24.30;45.10;;;;;;213917;1312;22626;-51
2021/12/11 08:05:29;;;;;;;17.30;11.50;;;24.30;44.70;;;;;;213609;1312;22572;-51
2021/12/11 08:10:36;;;;;;;16.50;11.30;;;24.30;44.70;;;;;;214445;1309;25262;-53
2021/12/11 08:15:43;;;;;;;16.30;11.60;;;24.30;44.80;;;;;;214163;1309;25345;-54
2021/12/11 08:20:48;;;;;;;17.70;11.70;;;24.30;44.90;;;;;;213932;1309;22596;-55
2021/12/11 08:25:58;;;;;;;17.00;11.30;;;24.20;44.80;;;;;;214194;1312;25393;-55
2021/12/11 08:31:01;;;;;;;16.80;11.20;;;24.20;45.20;;;;;;214363;1309;22751;-54
2021/12/11 08:36:05;;;;;;;18.00;12.00;;;24.10;44.90;;;;;;213935;1312;25335;-53
2021/12/11 08:41:13;;;;;;;19.00;12.30;;;24.00;45.10;;;;;;214310;1309;22602;-54
2021/12/11 08:46:27;;;;;;;19.80;12.40;;;24.00;46.00;;;;;;214346;1309;22561;-54
2021/12/11 08:51:51;;;;;;;35.90;15.20;;;23.90;47.10;;;;;;214281;1309;22558;-53
2021/12/11 08:56:57;;;;;;;25.70;14.70;;;23.70;47.60;;;;;;213928;1317;26978;-54
2021/12/11 09:02:00;;;;;;;25.30;14.30;;;23.60;47.40;;;;;;214445;1312;270116;-52
2021/12/11 09:07:12;;;;;;;25.50;16.20;;;23.50;47.50;;;;;;214358;1315;22577;-55
2021/12/11 09:12:39;;;;;;;23.70;17.20;;;23.40;47.70;;;;;;214491;1315;24269;-54
2021/12/11 09:17:51;;;;;;;26.30;17.80;;;23.20;47.60;;;;;;214541;1315;26543;-51
2021/12/11 09:23:04;;;;;;;30.50;20.20;;;23.10;47.10;;;;;;214583;1309;25606;-53
2021/12/11 09:28:26;;;;;;;34.20;21.00;;;23.00;47.50;;;;;;214202;1309;23024;-52
2021/12/11 09:33:49;;;;;;;32.10;19.60;;;22.90;47.70;;;;;;214110;1309;24375;-54
2021/12/11 09:39:05;;;;;;;40.40;23.30;;;22.80;47.60;;;;;;214160;1309;24336;-55
2021/12/11 09:44:10;;;;;;;43.80;25.90;;;22.70;47.90;;;;;;214013;1312;22610;-53
2021/12/11 09:49:19;;;;;;;42.40;25.50;;;22.50;48.00;;;;;;214083;1312;23318;-50
2021/12/11 09:54:24;;;;;;;40.30;24.40;;;22.50;48.00;;;;;;214333;1310;25336;-50
2021/12/11 09:59:30;;;;;;;36.90;21.70;;;22.50;48.10;;;;;;216724;1309;25269;-55
2021/12/11 10:04:42;;;;;;;36.90;22.60;;;22.50;48.20;;;;;;214496;1309;22877;-54
2021/12/11 10:09:51;;;;;;;38.00;20.70;;;22.40;48.30;;;;;;214506;1315;26536;-56
2021/12/11 10:15:06;;;;;;;35.40;20.20;;;22.40;47.90;;;;;;214499;1312;24412;-48
2021/12/11 10:20:38;;;;;;;27.10;16.80;;;22.50;48.20;;;;;;214513;1315;25329;-54
2021/12/11 10:25:43;;;;;;;32.90;17.10;;;22.90;47.70;;;;;;214009;1312;24252;-54
2021/12/11 10:30:50;;;;;;;27.30;16.20;;;23.20;47.10;;;;;;214617;1309;24293;-54
2021/12/11 10:35:57;;;;;;;25.50;15.20;;;23.50;46.50;;;;;;214443;1309;22648;-55
2021/12/11 10:41:06;;;;;;;23.70;13.60;;;23.60;45.90;;;;;;214241;1315;22610;-53
2021/12/11 10:46:11;;;;;;;25.00;13.10;;;23.70;46.30;;;;;;214238;1315;25624;-52
2021/12/11 10:51:26;;;;;;;27.90;12.90;;;23.60;46.50;;;;;;214566;1315;26660;-52
2021/12/11 10:56:31;;;;;;;19.10;10.90;;;23.70;46.50;;;;;;213618;1312;26572;-50
2021/12/11 11:01:42;;;;;;;22.90;10.80;;;24.00;45.90;;;;;;214114;1309;22614;-51
2021/12/11 11:06:49;;;;;;;14.30;9.00;;;23.90;46.30;;;;;;214246;1309;22870;-50
2021/12/11 11:11:55;;;;;;;15.80;8.90;;;23.60;47.00;;;;;;214284;1309;22593;-54
2021/12/11 11:17:06;;;;;;;19.40;8.60;;;23.50;47.00;;;;;;214290;1309;24337;-53
2021/12/11 11:22:15;;;;;;;25.60;9.30;;;23.30;47.40;;;;;;214162;1312;22600;-53
2021/12/11 11:27:22;;;;;;;20.10;9.60;;;23.20;47.70;;;;;;213748;1312;25448;-51
2021/12/11 11:32:31;;;;;;;23.40;9.10;;;23.00;48.30;;;;;;214279;1314;25281;-53
2021/12/11 11:37:35;;;;;;;17.00;9.20;;;22.90;49.00;;;;;;214341;1314;24338;-52
2021/12/11 11:42:40;;;;;;;14.80;8.40;;;22.90;49.20;;;;;;214419;1313;24299;-54
2021/12/11 11:47:49;;;;;;;16.00;7.70;;;22.70;49.40;;;;;;214519;1315;22586;-55
2021/12/11 11:52:53;;;;;;;19.50;8.20;;;22.70;49.90;;;;;;214429;1315;22636;-59
2021/12/11 11:57:58;;;;;;;17.80;7.90;;;22.70;50.00;;;;;;214216;1313;23111;-54
2021/12/11 12:03:02;;;;;;;19.80;8.70;;;22.60;50.60;;;;;;214465;1316;22564;-53
2021/12/11 12:08:10;;;;;;;13.60;6.60;;;22.50;50.70;;;;;;214042;1308;25278;-51
2021/12/11 12:13:18;;;;;;;13.60;5.80;;;22.30;51.50;;;;;;213963;1309;23147;-54
2021/12/11 12:18:25;;;;;;;11.00;5.60;;;22.20;51.80;;;;;;214091;1313;22590;-53
2021/12/11 12:23:31;;;;;;;9.30;5.60;;;22.20;52.00;;;;;;214074;1309;25380;-56
2021/12/11 12:28:36;;;;;;;9.80;4.70;;;22.20;52.30;;;;;;213923;1309;24225;-51
2021/12/11 12:33:50;;;;;;;13.20;5.10;;;22.10;52.10;;;;;;214013;1312;25371;-53
2021/12/11 12:38:55;;;;;;;10.10;5.80;;;22.00;51.90;;;;;;213875;1312;25331;-51
2021/12/11 12:44:18;;;;;;;15.60;6.90;;;22.00;51.40;;;;;;214074;1309;22587;-53
2021/12/11 12:49:38;;;;;;;10.20;5.40;;;22.00;51.30;;;;;;213822;1309;24319;-54
2021/12/11 12:54:43;;;;;;;9.40;5.70;;;22.10;51.00;;;;;;214119;1309;22583;-51
2021/12/11 12:59:59;;;;;;;9.80;7.00;;;22.60;49.50;;;;;;213671;1312;25341;-52
2021/12/11 13:05:12;;;;;;;25.90;11.30;;;22.90;47.50;;;;;;214341;1318;24288;-56
2021/12/11 13:10:38;;;;;;;21.40;10.20;;;23.10;45.20;;;;;;213585;1312;22569;-62
2021/12/11 13:15:57;;;;;;;22.10;11.20;;;23.30;44.60;;;;;;214969;1315;22671;-54
2021/12/11 13:21:23;;;;;;;28.80;10.40;;;23.40;44.60;;;;;;214307;1314;25383;-51
2021/12/11 13:26:31;;;;;;;21.80;10.10;;;23.50;45.80;;;;;;214286;1309;25410;-52
2021/12/11 13:32:22;;;;;;;30.10;10.40;;;23.60;45.70;;;;;;214109;1309;25680;-56
2021/12/11 13:37:30;;;;;;;22.10;9.00;;;23.80;45.20;;;;;;213882;1314;25384;-56
2021/12/11 13:42:58;;;;;;;26.60;9.00;;;23.80;45.90;;;;;;214027;1309;22561;-55
2021/12/11 13:48:10;;;;;;;43.40;10.30;;;23.80;46.40;;;;;;214072;1314;22712;-56
2021/12/11 13:53:22;;;;;;;19.60;8.00;;;23.90;48.50;;;;;;214166;1309;22977;-53
2021/12/11 13:58:35;;;;;;;31.90;7.60;;;24.00;46.70;;;;;;214149;1313;22654;-55
2021/12/11 14:03:45;;;;;;;34.80;9.10;;;23.90;47.70;;;;;;214170;1310;22630;-54
2021/12/11 14:09:10;;;;;;;23.70;8.60;;;24.00;49.10;;;;;;213747;1312;22681;-55
2021/12/11 14:14:22;;;;;;;68.10;25.00;;;24.00;48.40;;;;;;214133;1316;22590;-52
2021/12/11 14:19:32;;;;;;;48.80;18.60;;;24.00;48.80;;;;;;214126;1310;23020;-53
2021/12/11 14:24:51;;;;;;;48.40;16.70;;;24.00;49.00;;;;;;213748;1315;23114;-51
2021/12/11 14:29:59;;;;;;;43.20;16.30;;;24.00;48.90;;;;;;214293;1318;22584;-53
2021/12/11 14:35:06;;;;;;;35.70;13.50;;;24.00;48.00;;;;;;213978;1316;22644;-52
2021/12/11 14:40:17;;;;;;;40.90;13.50;;;24.00;47.70;;;;;;214345;1314;22578;-53
2021/12/11 14:45:38;;;;;;;28.50;12.30;;;24.10;48.00;;;;;;214189;1310;22716;-52
2021/12/11 14:50:52;;;;;;;29.60;12.00;;;24.10;48.50;;;;;;214206;1310;25535;-56
2021/12/11 14:56:16;;;;;;;23.50;10.70;;;23.90;49.70;;;;;;213798;1310;25511;-56
2021/12/11 15:01:38;;;;;;;35.60;10.90;;;23.90;50.90;;;;;;214065;1315;24398;-54
2021/12/11 15:06:44;;;;;;;21.10;10.30;;;23.70;52.10;;;;;;214049;1314;22862;-56
2021/12/11 15:11:56;;;;;;;22.60;11.20;;;23.50;53.40;;;;;;214211;1315;22616;-53
2021/12/11 15:17:13;;;;;;;22.10;10.30;;;23.40;53.70;;;;;;214072;1309;24236;-54
2021/12/11 15:22:24;;;;;;;26.50;10.30;;;23.10;54.60;;;;;;214123;1309;22777;-55
2021/12/11 15:27:35;;;;;;;20.40;9.80;;;23.20;54.90;;;;;;214213;1313;22709;-55
2021/12/11 15:32:44;;;;;;;20.20;9.80;;;23.00;55.00;;;;;;214179;1310;24955;-52
2021/12/11 15:37:52;;;;;;;26.00;11.00;;;22.80;55.30;;;;;;214150;1316;23371;-54
2021/12/11 15:43:01;;;;;;;25.00;10.80;;;22.80;55.40;;;;;;214368;1315;26358;-55
2021/12/11 15:48:10;;;;;;;25.80;10.50;;;22.80;54.30;;;;;;214277;1315;24284;-52
2021/12/11 15:53:15;;;;;;;26.70;10.20;;;22.80;54.00;;;;;;213668;1312;22565;-53
2021/12/11 15:58:43;;;;;;;27.00;10.70;;;22.60;54.20;;;;;;214192;1314;24326;-53
2021/12/11 16:03:49;;;;;;;24.30;11.30;;;22.70;54.50;;;;;;214270;1315;24486;-52
2021/12/11 16:08:56;;;;;;;32.70;11.90;;;22.60;54.60;;;;;;214580;1315;24248;-58
2021/12/11 16:14:05;;;;;;;26.90;11.60;;;22.60;53.90;;;;;;214376;1315;22929;-53
2021/12/11 16:19:10;;;;;;;25.20;10.90;;;22.50;54.40;;;;;;214284;1315;24318;-55
2021/12/11 16:24:15;;;;;;;21.70;10.40;;;22.50;53.90;;;;;;214464;1319;22570;-54
2021/12/11 16:29:19;;;;;;;20.40;10.00;;;22.40;54.50;;;;;;214125;1318;22589;-54
2021/12/11 16:34:23;;;;;;;21.60;9.80;;;22.40;54.00;;;;;;214198;1316;22622;-56
2021/12/11 16:39:27;;;;;;;22.70;9.60;;;22.30;53.00;;;;;;214528;1315;22608;-54
2021/12/11 16:44:32;;;;;;;19.70;9.80;;;22.20;52.80;;;;;;214402;1316;22578;-56
2021/12/11 16:49:38;;;;;;;18.40;10.60;;;22.10;52.80;;;;;;214513;1315;22582;-58
2021/12/11 16:54:43;;;;;;;16.30;9.80;;;22.10;52.60;;;;;;214269;1316;22660;-56
2021/12/11 16:59:49;;;;;;;21.80;10.20;;;22.00;53.90;;;;;;214414;1313;25383;-56
2021/12/11 17:04:53;;;;;;;17.80;11.00;;;21.90;54.00;;;;;;214372;1314;154091;-56
2021/12/11 17:09:57;;;;;;;22.70;11.30;;;21.90;53.40;;;;;;214552;1313;22584;-52
2021/12/11 17:15:07;;;;;;;23.50;11.50;;;22.00;52.80;;;;;;214206;1312;24248;-55
2021/12/11 17:20:20;;;;;;;20.00;11.30;;;22.30;50.90;;;;;;214311;1315;22569;-54
2021/12/11 17:25:37;;;;;;;23.50;11.10;;;22.70;49.80;;;;;;214052;1315;22614;-56
2021/12/11 17:30:42;;;;;;;19.00;12.10;;;23.10;48.60;;;;;;214177;1310;22572;-55
2021/12/11 17:35:47;;;;;;;20.50;12.20;;;23.20;48.00;;;;;;214117;1313;24283;-57
2021/12/11 17:41:04;;;;;;;19.10;11.40;;;23.30;47.50;;;;;;214369;1315;24438;-52
2021/12/11 17:46:22;;;;;;;19.00;11.90;;;23.30;47.60;;;;;;214396;1316;22609;-54
2021/12/11 17:51:29;;;;;;;17.70;10.40;;;23.30;48.00;;;;;;214395;1316;26613;-55
2021/12/11 17:56:38;;;;;;;14.40;9.80;;;23.40;48.40;;;;;;214230;1314;22719;-55
2021/12/11 18:02:34;;;;;;;15.90;10.00;;;23.40;47.30;;;;;;214209;1313;22603;-55
2021/12/11 18:07:46;;;;;;;14.20;9.60;;;23.50;47.50;;;;;;213971;1312;25316;-52
2021/12/11 18:13:16;;;;;;;15.80;8.40;;;23.50;47.20;;;;;;214203;1312;22943;-55
2021/12/11 18:18:38;;;;;;;11.20;7.80;;;23.50;48.20;;;;;;213420;1317;22802;-55
2021/12/11 18:23:50;;;;;;;11.00;7.30;;;23.50;47.80;;;;;;214090;1310;22600;-51
2021/12/11 18:28:57;;;;;;;18.00;8.00;;;23.60;47.60;;;;;;214618;1315;25486;-55
2021/12/11 18:34:17;;;;;;;12.30;7.00;;;23.70;46.80;;;;;;214038;1313;24451;-55
2021/12/11 18:39:32;;;;;;;13.60;7.10;;;23.50;46.90;;;;;;214055;1310;24311;-56
2021/12/11 18:44:40;;;;;;;10.90;7.20;;;23.30;47.30;;;;;;214436;1312;25583;-55
2021/12/11 18:49:46;;;;;;;16.10;6.90;;;23.10;47.50;;;;;;214406;1312;25399;-53
2021/12/11 18:54:54;;;;;;;9.90;6.70;;;22.90;47.70;;;;;;213752;1312;25439;-52
2021/12/11 19:00:01;;;;;;;14.80;6.60;;;22.80;48.10;;;;;;214183;1316;22670;-55
2021/12/11 19:05:16;;;;;;;10.20;6.50;;;22.60;49.00;;;;;;217471;1316;22608;-55
2021/12/11 19:10:20;;;;;;;12.90;6.50;;;22.50;49.00;;;;;;214263;1312;24310;-53
2021/12/11 19:15:29;;;;;;;8.50;5.30;;;22.70;48.40;;;;;;214065;1310;22605;-53
2021/12/11 19:20:40;;;;;;;17.70;6.60;;;22.60;48.60;;;;;;213958;1315;22573;-55
2021/12/11 19:25:44;;;;;;;12.60;5.80;;;22.50;50.00;;;;;;214237;1315;22612;-53
2021/12/11 19:30:55;;;;;;;12.30;5.40;;;22.30;51.70;;;;;;214342;1310;25272;-56
2021/12/11 19:36:08;;;;;;;11.90;4.90;;;22.20;52.40;;;;;;214700;1316;22581;-54
2021/12/11 19:41:17;;;;;;;8.80;4.40;;;22.20;53.00;;;;;;214581;1310;24430;-54
2021/12/11 19:46:24;;;;;;;8.40;4.50;;;22.10;53.50;;;;;;214671;1315;22653;-54
2021/12/11 19:51:32;;;;;;;9.50;4.00;;;22.10;53.10;;;;;;214672;1310;22566;-54
2021/12/11 19:56:41;;;;;;;8.80;4.50;;;22.10;53.00;;;;;;214733;1315;22585;-53
2021/12/11 20:01:51;;;;;;;8.60;3.60;;;22.00;53.10;;;;;;214666;1316;25889;-52
2021/12/11 20:06:59;;;;;;;6.10;3.50;;;22.00;52.60;;;;;;214727;1315;24245;-53
2021/12/11 20:12:15;;;;;;;5.40;3.50;;;21.90;53.20;;;;;;214503;1315;25249;-53
2021/12/11 20:17:20;;;;;;;5.50;3.20;;;21.90;53.10;;;;;;214316;1315;22665;-55
2021/12/11 20:22:34;;;;;;;5.90;3.30;;;21.80;53.10;;;;;;214221;1316;25444;-54
2021/12/11 20:27:50;;;;;;;6.30;3.30;;;21.80;52.60;;;;;;214247;1314;24457;-56
2021/12/11 20:32:58;;;;;;;4.60;2.60;;;22.10;52.40;;;;;;214711;1316;25923;-54
2021/12/11 20:38:14;;;;;;;11.00;2.70;;;22.60;51.50;;;;;;214682;1315;22838;-52
2021/12/11 20:43:28;;;;;;;6.30;3.20;;;23.00;50.70;;;;;;214770;1314;22580;-55
2021/12/11 20:48:42;;;;;;;4.60;2.80;;;23.10;50.30;;;;;;214693;1314;22722;-56
2021/12/11 20:53:58;;;;;;;9.00;3.40;;;23.40;49.70;;;;;;214674;1310;24273;-52
2021/12/11 20:59:10;;;;;;;4.60;2.90;;;23.60;49.10;;;;;;214645;1315;25339;-52
2021/12/11 21:04:28;;;;;;;7.00;3.40;;;23.60;49.00;;;;;;214550;1312;23919;-56
2021/12/11 21:09:50;;;;;;;8.10;2.90;;;23.50;49.60;;;;;;214590;1313;22629;-52
2021/12/11 21:14:56;;;;;;;6.70;3.00;;;23.70;49.50;;;;;;214660;1309;26736;-56
2021/12/11 21:20:36;;;;;;;6.90;3.00;;;23.70;50.40;;;;;;214627;1315;22557;-53
2021/12/11 21:25:50;;;;;;;8.90;3.90;;;23.60;50.60;;;;;;214563;1314;22584;-54
2021/12/11 21:31:21;;;;;;;6.10;3.40;;;23.60;49.60;;;;;;214217;1309;23021;-58
2021/12/11 21:36:34;;;;;;;7.80;3.70;;;23.80;49.30;;;;;;214261;1314;25505;-56
2021/12/11 21:41:50;;;;;;;7.10;3.50;;;23.70;49.40;;;;;;214343;1314;22696;-56
2021/12/11 21:46:59;;;;;;;6.80;3.90;;;23.60;49.50;;;;;;214349;1315;22639;-55
2021/12/11 21:52:12;;;;;;;9.40;3.70;;;23.70;49.40;;;;;;214251;1309;25698;-56
2021/12/11 21:57:22;;;;;;;9.80;3.60;;;23.70;49.80;;;;;;214202;1309;25549;-55
2021/12/11 22:02:38;;;;;;;8.30;3.50;;;23.80;50.40;;;;;;214308;1309;22621;-55
2021/12/11 22:07:47;;;;;;;9.90;3.70;;;23.90;50.40;;;;;;214222;1309;23052;-55
2021/12/11 22:12:59;;;;;;;7.50;3.80;;;23.90;50.50;;;;;;214569;1310;22698;-56
2021/12/11 22:18:05;;;;;;;10.00;4.10;;;24.00;50.30;;;;;;214159;1309;22620;-56
2021/12/11 22:23:10;;;;;;;8.90;4.20;;;23.90;50.20;;;;;;214131;1318;25596;-56
2021/12/11 22:28:16;;;;;;;12.30;4.50;;;24.00;50.10;;;;;;214230;1316;22738;-56
2021/12/11 22:33:28;;;;;;;10.50;4.40;;;24.00;49.90;;;;;;214381;1314;22714;-56
2021/12/11 22:38:35;;;;;;;15.90;5.10;;;24.00;50.00;;;;;;214470;1314;25432;-54
2021/12/11 22:43:49;;;;;;;11.20;4.30;;;23.80;50.50;;;;;;214431;1310;24298;-55
2021/12/11 22:48:56;;;;;;;11.30;5.10;;;23.60;50.80;;;;;;214380;1314;22590;-55
2021/12/11 22:54:07;;;;;;;12.40;4.70;;;23.30;51.40;;;;;;214433;1315;22775;-56
2021/12/11 22:59:24;;;;;;;11.40;5.30;;;23.20;51.70;;;;;;214305;1314;23149;-56
2021/12/11 23:10:19;;;;;;;12.10;5.60;;;22.90;52.70;;;;;;214175;1314;22722;-55
2021/12/11 23:15:32;;;;;;;15.10;6.00;;;22.70;54.90;;;;;;214382;1315;26731;-52
2021/12/11 23:20:46;;;;;;;11.30;5.80;;;22.70;55.60;;;;;;214342;1314;22638;-55
2021/12/11 23:25:58;;;;;;;13.30;5.60;;;22.70;55.30;;;;;;214330;1316;22580;-55
2021/12/11 23:31:14;;;;;;;12.00;6.10;;;22.60;55.10;;;;;;214328;1316;24308;-54
2021/12/11 23:36:23;;;;;;;12.30;5.60;;;22.50;55.00;;;;;;214374;1309;24275;-54
2021/12/11 23:41:33;;;;;;;14.70;6.00;;;22.50;55.20;;;;;;214129;1313;24003;-56
2021/12/11 23:46:38;;;;;;;11.00;5.80;;;22.40;55.10;;;;;;213992;1312;25256;-56
2021/12/11 23:51:45;;;;;;;10.70;5.50;;;22.30;54.80;;;;;;214288;1314;25380;-56
2021/12/11 23:57:04;;;;;;;12.20;6.10;;;22.30;55.00;;;;;;214362;1314;22603;-55
